Ladore — HBY4456 — position and weather

sailwx.info

Track history (hours):
 
Tides and Currents Weather Stations Pressure Air Temp Water Temp Dewpoint Dewpoint Depression Visibility Wind Speed Wind Dir Waves Ship Positions

Ladore

Last reported at 2015-Oct-28 08:31 UTC. Time now 2016-Apr-28 23:50 UTC.
Position N 39°53' E 002°47'.
Warning: this ship's position is months out of date.

Length 17 m.

Type: Sailing vessel. MMSI: 269102720.

Date/timePositionNaut miles runAvg speedWind from/ knotsBaromVisibWave heightAir tempDewpointWater temp
2015-Oct-28 08:31N 39°53' E 002°47'7 7.2
2015-Oct-28 07:33N 39°48' E 002°41'0 0.3
2015-Oct-28 06:31N 39°48' E 002°42'0 0.0
2015-Oct-28 05:28N 39°48' E 002°42'0 0.0
2015-Oct-28 04:28N 39°48' E 002°42'0 0.0
2015-Oct-28 03:31N 39°48' E 002°42'0 0.0
2015-Oct-28 02:31N 39°48' E 002°42'0 0.0
2015-Oct-28 01:31N 39°48' E 002°42'0 0.0
2015-Oct-28 00:31N 39°48' E 002°42'0 0.0
2015-Oct-27 21:31N 39°48' E 002°42'0 0.0
2015-Oct-27 20:31N 39°48' E 002°42'0 0.0
2015-Oct-27 19:31N 39°48' E 002°42'0 0.0
2015-Oct-27 18:25N 39°48' E 002°42'0 0.0
2015-Oct-27 17:25N 39°48' E 002°42'0 0.0
2015-Oct-27 16:31N 39°48' E 002°42'0 0.0
2015-Oct-27 15:31N 39°48' E 002°42'0 0.0
2015-Oct-27 14:31N 39°48' E 002°42'0 0.0
2015-Oct-27 13:31N 39°48' E 002°42'0 0.0
2015-Oct-27 12:28N 39°48' E 002°42'0 0.0
2015-Oct-27 11:31N 39°48' E 002°42'0 0.0
2015-Oct-27 10:31N 39°48' E 002°42'0 0.0
2015-Oct-27 09:31N 39°48' E 002°42'0 0.0
2015-Oct-27 08:31N 39°48' E 002°42'0 0.0
2015-Oct-27 07:25N 39°48' E 002°42'0 0.0
2015-Oct-27 06:31N 39°48' E 002°42'0 0.0
2015-Oct-27 05:25N 39°48' E 002°42'0 0.0
2015-Oct-27 04:25N 39°48' E 002°42'0 0.0
2015-Oct-27 03:31N 39°48' E 002°42'0 0.0
2015-Oct-27 02:31N 39°48' E 002°42'0 0.0
2015-Oct-27 01:31N 39°48' E 002°42'0 0.0
2015-Oct-27 00:31N 39°48' E 002°42'0 0.0
2015-Oct-26 23:28N 39°48' E 002°42'0 0.0
2015-Oct-26 22:31N 39°48' E 002°42'0 0.0
2015-Oct-26 21:25N 39°48' E 002°42'0 0.0
2015-Oct-26 20:28N 39°48' E 002°42'0 0.0
2015-Oct-26 19:31N 39°48' E 002°42'0 0.0
2015-Oct-26 18:31N 39°48' E 002°42'0 0.0
2015-Oct-26 17:31N 39°48' E 002°42'0 0.0
2015-Oct-26 16:31N 39°48' E 002°42'0 0.0
2015-Oct-26 15:31N 39°48' E 002°42'0 0.0
2015-Oct-26 14:28N 39°48' E 002°42'0 0.0
2015-Oct-26 13:31N 39°48' E 002°42'0 0.0
2015-Oct-26 12:28N 39°48' E 002°42'0 0.0
2015-Oct-26 11:31N 39°48' E 002°42'0 0.0
2015-Oct-26 10:31N 39°48' E 002°42'0 0.0
2015-Oct-26 09:31N 39°48' E 002°42'0 0.1
2015-Oct-26 08:33N 39°48' E 002°42'0 0.0
2015-Oct-26 07:33N 39°48' E 002°42'0 0.0
2015-Oct-26 06:33N 39°48' E 002°42'3 3.1
2015-Oct-26 05:33N 39°51' E 002°40'7 6.7
2015-Oct-26 04:32N 39°57' E 002°39'7 6.8
2015-Oct-26 03:33N 40°04' E 002°36'6 6.2
2015-Oct-26 02:33N 40°10' E 002°34'6 5.7
2015-Oct-26 01:33N 40°15' E 002°31'6 5.7
2015-Oct-26 00:31N 40°21' E 002°30'5 5.2
2015-Oct-25 23:33N 40°25' E 002°27'6 5.7
2015-Oct-25 22:33N 40°30' E 002°22'6 6.0
2015-Oct-25 21:33N 40°34' E 002°17'9 6.5
2015-Oct-25 20:10N 40°43' E 002°13'  
Track history (hours):
 
Tides and Currents Weather Stations Pressure Air Temp Water Temp Dewpoint Dewpoint Depression Visibility Wind Speed Wind Dir Waves Ship Positions

Ladore

Last reported at 2015-Oct-28 08:31 UTC. Time now 2016-Apr-28 23:50 UTC.
Position N 39°53' E 002°47'.
Warning: this ship's position is months out of date.

Length 17 m.

Type: Sailing vessel. MMSI: 269102720.

Date/timePositionNaut miles runAvg speedWind from/ knotsBaromVisibWave heightAir tempDewpointWater temp
2015-Oct-28 08:31N 39°53' E 002°47'7 7.2
2015-Oct-28 07:33N 39°48' E 002°41'0 0.3
2015-Oct-28 06:31N 39°48' E 002°42'0 0.0
2015-Oct-28 05:28N 39°48' E 002°42'0 0.0
2015-Oct-28 04:28N 39°48' E 002°42'0 0.0
2015-Oct-28 03:31N 39°48' E 002°42'0 0.0
2015-Oct-28 02:31N 39°48' E 002°42'0 0.0
2015-Oct-28 01:31N 39°48' E 002°42'0 0.0
2015-Oct-28 00:31N 39°48' E 002°42'0 0.0
2015-Oct-27 21:31N 39°48' E 002°42'0 0.0
2015-Oct-27 20:31N 39°48' E 002°42'0 0.0
2015-Oct-27 19:31N 39°48' E 002°42'0 0.0
2015-Oct-27 18:25N 39°48' E 002°42'0 0.0
2015-Oct-27 17:25N 39°48' E 002°42'0 0.0
2015-Oct-27 16:31N 39°48' E 002°42'0 0.0
2015-Oct-27 15:31N 39°48' E 002°42'0 0.0
2015-Oct-27 14:31N 39°48' E 002°42'0 0.0
2015-Oct-27 13:31N 39°48' E 002°42'0 0.0
2015-Oct-27 12:28N 39°48' E 002°42'0 0.0
2015-Oct-27 11:31N 39°48' E 002°42'0 0.0
2015-Oct-27 10:31N 39°48' E 002°42'0 0.0
2015-Oct-27 09:31N 39°48' E 002°42'0 0.0
2015-Oct-27 08:31N 39°48' E 002°42'0 0.0
2015-Oct-27 07:25N 39°48' E 002°42'0 0.0
2015-Oct-27 06:31N 39°48' E 002°42'0 0.0
2015-Oct-27 05:25N 39°48' E 002°42'0 0.0
2015-Oct-27 04:25N 39°48' E 002°42'0 0.0
2015-Oct-27 03:31N 39°48' E 002°42'0 0.0
2015-Oct-27 02:31N 39°48' E 002°42'0 0.0
2015-Oct-27 01:31N 39°48' E 002°42'0 0.0
2015-Oct-27 00:31N 39°48' E 002°42'0 0.0
2015-Oct-26 23:28N 39°48' E 002°42'0 0.0
2015-Oct-26 22:31N 39°48' E 002°42'0 0.0
2015-Oct-26 21:25N 39°48' E 002°42'0 0.0
2015-Oct-26 20:28N 39°48' E 002°42'0 0.0
2015-Oct-26 19:31N 39°48' E 002°42'0 0.0
2015-Oct-26 18:31N 39°48' E 002°42'0 0.0
2015-Oct-26 17:31N 39°48' E 002°42'0 0.0
2015-Oct-26 16:31N 39°48' E 002°42'0 0.0
2015-Oct-26 15:31N 39°48' E 002°42'0 0.0
2015-Oct-26 14:28N 39°48' E 002°42'0 0.0
2015-Oct-26 13:31N 39°48' E 002°42'0 0.0
2015-Oct-26 12:28N 39°48' E 002°42'0 0.0
2015-Oct-26 11:31N 39°48' E 002°42'0 0.0
2015-Oct-26 10:31N 39°48' E 002°42'0 0.0
2015-Oct-26 09:31N 39°48' E 002°42'0 0.1
2015-Oct-26 08:33N 39°48' E 002°42'0 0.0
2015-Oct-26 07:33N 39°48' E 002°42'0 0.0
2015-Oct-26 06:33N 39°48' E 002°42'3 3.1
2015-Oct-26 05:33N 39°51' E 002°40'7 6.7
2015-Oct-26 04:32N 39°57' E 002°39'7 6.8
2015-Oct-26 03:33N 40°04' E 002°36'6 6.2
2015-Oct-26 02:33N 40°10' E 002°34'6 5.7
2015-Oct-26 01:33N 40°15' E 002°31'6 5.7
2015-Oct-26 00:31N 40°21' E 002°30'5 5.2
2015-Oct-25 23:33N 40°25' E 002°27'6 5.7
2015-Oct-25 22:33N 40°30' E 002°22'6 6.0
2015-Oct-25 21:33N 40°34' E 002°17'9 6.5
2015-Oct-25 20:10N 40°43' E 002°13'  

Dump ship's entire track history